Data for 11/21/2013

Time Sea-Level Adjusted Pressure Absolute Pressure Temperature Relative Humidity Dew Point   
(mb) (inHg) (mb) (inHg) (C) (F) (%) (C) (F)
00:05 1024 30.24 853 25.19 -12.6 9.4 86 -14.5 6
00:10 1024 30.24 853 25.19 -12.6 9.4 86 -14.5 5.9
00:15 1024 30.24 853 25.19 -12.6 9.3 86 -14.5 5.9
00:20 1024 30.24 853 25.19 -12.6 9.3 86 -14.5 5.8
00:25 1024 30.24 853 25.19 -12.7 9.1 85 -14.7 5.5
00:30 1024 30.24 853 25.19 -12.9 8.7 86 -14.9 5.3
00:35 1024 30.24 853 25.19 -13.1 8.4 86 -15 5
00:40 1024 30.24 853 25.19 -13.3 8 87 -15.1 4.9
00:45 1024 30.24 853 25.19 -13.4 7.9 86 -15.3 4.5
00:50 1024 30.24 853 25.19 -13.6 7.5 86 -15.4 4.2
00:55 1024 30.24 853 25.19 -13.7 7.3 86 -15.6 3.9
01:00 1024 30.24 853 25.19 -13.8 7.2 85 -15.8 3.6
01:05 1024 30.24 853 25.19 -13.9 6.9 85 -15.9 3.4
01:10 1024 30.24 853 25.19 -14.1 6.6 86 -16 3.2
01:15 1024 30.24 853 25.19 -14.2 6.4 85 -16.1 2.9
01:20 1024 30.24 853 25.19 -14.3 6.4 86 -16.1 3.1
01:25 1024 30.24 853 25.19 -14.2 6.5 86 -16.1 3
01:30 1024 30.24 853 25.19 -14.3 6.3 85 -16.2 2.8
01:35 1024 30.24 853 25.19 -14.5 5.9 86 -16.4 2.5
01:40 1024 30.24 853 25.19 -14.7 5.5 86 -16.6 2.2
01:45 1024 30.24 853 25.19 -15 5.1 87 -16.7 1.9
01:50 1024 30.24 853 25.19 -14.9 5.1 87 -16.7 2
01:55 1024 30.24 853 25.19 -14.8 5.3 87 -16.5 2.2
02:00 1024 30.24 853 25.19 -14.7 5.5 86 -16.5 2.3
02:05 1024 30.24 853 25.19 -14.7 5.5 87 -16.5 2.3
02:10 1024 30.24 853 25.19 -14.7 5.5 85 -16.7 1.9
02:15 1024 30.24 853 25.19 -15 4.9 85 -17.1 1.3
02:20 1024 30.24 853 25.19 -15.3 4.5 86 -17.2 1
02:25 1024 30.24 853 25.19 -15.4 4.3 87 -17.1 1.3
02:30 1024 30.24 853 25.19 -15.2 4.6 86 -17.1 1.3
02:35 1024 30.24 853 25.19 -15.2 4.7 87 -16.9 1.6
02:40 1024 30.24 853 25.19 -15.1 4.8 85 -17 1.4
02:45 1024 30.24 853 25.19 -15.2 4.7 85 -17.2 1.1
02:50 1024 30.24 853 25.19 -15.3 4.4 86 -17.2 1
02:55 1024 30.24 853 25.19 -15.3 4.4 86 -17.1 1.2
03:00 1024 30.24 853 25.19 -15.3 4.6 86 -17.1 1.2
03:05 1024 30.24 854 25.22 -15.3 4.6 86 -17 1.3
03:10 1024 30.24 854 25.22 -15.1 4.8 87 -16.8 1.8
03:15 1024 30.24 854 25.22 -14.8 5.3 87 -16.6 2.2
03:20 1025 30.27 854 25.22 -14.7 5.5 86 -16.5 2.2
03:25 1025 30.27 854 25.22 -14.7 5.6 86 -16.5 2.3
03:30 1025 30.27 854 25.22 -14.5 5.9 86 -16.3 2.7
03:35 1025 30.27 854 25.22 -14.4 6.1 86 -16.3 2.7
03:40 1025 30.27 854 25.22 -14.4 6.2 85 -16.3 2.6
03:45 1025 30.27 854 25.22 -14.3 6.2 86 -16.2 2.9
03:50 1025 30.27 854 25.22 -14.2 6.5 86 -16 3.2
03:55 1025 30.27 854 25.22 -14.1 6.6 85 -16.1 3.1
04:00 1025 30.27 854 25.22 -14.1 6.6 86 -15.9 3.3
04:05 1025 30.27 854 25.22 -14 6.9 86 -15.8 3.6
04:10 1025 30.27 854 25.22 -13.9 6.9 86 -15.8 3.6
04:15 1025 30.27 854 25.22 -14 6.9 86 -15.8 3.6
04:20 1025 30.27 854 25.22 -13.9 6.9 87 -15.7 3.7
04:25 1025 30.27 854 25.22 -13.8 7.1 87 -15.6 3.9
04:30 1025 30.27 854 25.22 -13.7 7.3 87 -15.5 4.1
04:35 1025 30.27 854 25.22 -13.7 7.4 87 -15.4 4.2
04:40 1025 30.27 854 25.22 -13.6 7.5 87 -15.4 4.3
04:45 1025 30.27 854 25.22 -13.6 7.6 85 -15.5 4.1
04:50 1025 30.27 854 25.22 -13.5 7.6 86 -15.4 4.2
04:55 1025 30.27 855 25.25 -13.4 7.8 86 -15.4 4.4
05:00 1025 30.27 855 25.25 -13.4 8 86 -15.3 4.5
05:05 1025 30.27 855 25.25 -13.3 8.2 86 -15.1 4.7
05:10 1026 30.3 855 25.25 -13.2 8.2 86 -15 4.9
05:15 1026 30.3 855 25.25 -13.2 8.2 86 -15.1 4.9
05:20 1026 30.3 855 25.25 -13.2 8.2 86 -15.1 4.8
05:25 1026 30.3 855 25.25 -13.2 8.2 86 -15.1 4.7
05:30 1026 30.3 855 25.25 -13.3 8.1 86 -15.1 4.8
05:35 1026 30.3 855 25.25 -13.2 8.2 87 -15 5
05:40 1026 30.3 855 25.25 -13 8.6 87 -14.7 5.5
05:45 1026 30.3 855 25.25 -12.9 8.8 86 -14.7 5.5
05:50 1026 30.3 855 25.25 -12.8 8.9 87 -14.6 5.7
05:55 1026 30.3 855 25.25 -12.7 9.2 87 -14.4 6.1
06:00 1026 30.3 855 25.25 -12.4 9.7 87 -14.2 6.4
06:05 1026 30.3 855 25.25 -12.3 9.8 86 -14.2 6.4
06:10 1026 30.3 856 25.28 -12.3 9.8 86 -14.2 6.4
06:15 1026 30.3 856 25.28 -12.3 9.8 87 -14.1 6.6
06:20 1026 30.3 856 25.28 -12.3 9.8 87 -14.1 6.6
06:25 1026 30.3 856 25.28 -12.3 9.8 87 -14.1 6.6
06:30 1027 30.33 856 25.28 -12.3 9.8 87 -14.1 6.6
06:35 1027 30.33 856 25.28 -12.3 10 85 -14.2 6.4
06:40 1027 30.33 856 25.28 -12.3 9.9 85 -14.3 6.3
06:45 1027 30.33 856 25.28 -12.4 9.7 85 -14.4 6.1
06:50 1027 30.33 856 25.28 -12.5 9.5 86 -14.4 6.1
06:55 1027 30.33 856 25.28 -12.5 9.5 85 -14.5 5.9
07:00 1027 30.33 856 25.28 -12.6 9.4 85 -14.5 5.8
07:05 1027 30.33 856 25.28 -12.6 9.3 86 -14.6 5.8
07:10 1027 30.33 856 25.28 -12.7 9.2 86 -14.6 5.7
07:15 1027 30.33 856 25.28 -12.7 9.2 86 -14.6 5.7
07:20 1027 30.33 856 25.28 -12.7 9.2 86 -14.6 5.7
07:25 1027 30.33 856 25.28 -12.8 9 86 -14.7 5.5
07:30 1027 30.33 856 25.28 -13 8.7 86 -14.8 5.3
07:35 1027 30.33 856 25.28 -13 8.5 87 -14.8 5.3
07:40 1027 30.33 856 25.28 -13.2 8.3 87 -14.9 5.1
07:45 1027 30.33 857 25.31 -13.2 8.2 86 -15.1 4.9
07:50 1028 30.36 857 25.31 -13.4 8 86 -15.2 4.7
07:55 1028 30.36 857 25.31 -13.5 7.8 87 -15.3 4.5
08:00 1028 30.36 857 25.31 -13.5 7.7 87 -15.3 4.4
08:05 1028 30.36 857 25.31 -13.6 7.6 86 -15.4 4.2
08:10 1028 30.36 857 25.31 -13.7 7.3 86 -15.6 3.9
08:15 1028 30.36 857 25.31 -13.9 6.9 86 -15.8 3.6
08:20 1028 30.36 857 25.31 -14.1 6.7 86 -16 3.3
08:25 1028 30.36 857 25.31 -14.3 6.4 86 -16.1 3
08:30 1028 30.36 857 25.31 -14.4 6 86 -16.3 2.6
08:35 1028 30.36 857 25.31 -14.7 5.6 86 -16.5 2.3
08:40 1028 30.36 857 25.31 -14.8 5.4 87 -16.4 2.4
08:45 1028 30.36 858 25.34 -14.7 5.5 87 -16.5 2.4
08:50 1028 30.36 858 25.34 -14.7 5.5 87 -16.5 2.3
08:55 1028 30.36 858 25.34 -14.7 5.6 87 -16.4 2.5
09:00 1029 30.39 858 25.34 -14.6 5.7 87 -16.3 2.6
09:05 1028 30.36 858 25.34 -14.7 5.6 86 -16.5 2.3
09:10 1029 30.39 858 25.34 -14.8 5.4 86 -16.6 2.1
09:15 1029 30.39 858 25.34 -14.9 5.1 86 -16.8 1.8
09:20 1029 30.39 858 25.34 -15 5 86 -16.8 1.7
09:25 1029 30.39 858 25.34 -14.9 5.2 85 -16.8 1.7
09:30 1029 30.39 858 25.34 -14.8 5.3 85 -16.9 1.6
09:35 1029 30.39 858 25.34 -14.8 5.5 85 -16.8 1.8
09:40 1029 30.39 858 25.34 -14.7 5.6 85 -16.7 1.9
09:45 1029 30.39 858 25.34 -14.5 6 84 -16.6 2.1
09:50 1029 30.39 858 25.34 -14.3 6.2 84 -16.5 2.3
09:55 1029 30.39 859 25.37 -14.1 6.6 83 -16.4 2.5
10:00 1029 30.39 859 25.37 -13.7 7.3 82 -16.2 2.9
10:05 1029 30.39 859 25.37 -13.4 7.9 81 -16 3.1
10:10 1029 30.39 859 25.37 -13.3 8 81 -15.9 3.4
10:15 1029 30.39 859 25.37 -13.1 8.5 81 -15.7 3.8
10:20 1029 30.39 859 25.37 -12.9 8.9 79 -15.7 3.7
10:25 1030 30.42 859 25.37 -12.8 8.9 80 -15.6 3.9
10:30 1030 30.42 859 25.37 -12.2 10 79 -15.2 4.7
10:35 1030 30.42 859 25.37 -11.7 10.9 76 -15.1 4.8
10:40 1030 30.42 859 25.37 -11.5 11.3 75 -15 4.9
10:45 1030 30.42 859 25.37 -11.4 11.6 76 -14.8 5.4
10:50 1030 30.42 859 25.37 -11.1 12.1 77 -14.3 6.3
10:55 1030 30.42 859 25.37 -10.5 13.1 72 -14.6 5.8
11:00 1030 30.42 859 25.37 -10.9 12.3 76 -14.4 6
11:05 1030 30.42 859 25.37 -10.8 12.6 76 -14.3 6.3
11:10 1030 30.42 859 25.37 -9.9 14.1 75 -13.6 7.4
11:15 1030 30.42 859 25.37 -9.5 14.8 71 -13.8 7.2
11:20 1030 30.42 859 25.37 -10.3 13.4 74 -14.1 6.7
11:25 1030 30.42 859 25.37 -10.8 12.6 76 -14.2 6.5
11:30 1030 30.42 859 25.37 -10.5 13.1 77 -13.7 7.3
11:35 1030 30.42 859 25.37 -10.1 13.8 75 -13.7 7.3
11:40 1030 30.42 860 25.4 -10 14.1 73 -14 6.8
11:45 1030 30.42 860 25.4 -10 14 73 -13.9 6.9
11:50 1030 30.42 859 25.37 -10 13.9 73 -14 6.9
11:55 1030 30.42 859 25.37 -9.8 14.4 74 -13.5 7.7
12:00 1030 30.42 859 25.37 -9.1 15.7 69 -13.7 7.4
12:05 1030 30.42 859 25.37 -9.2 15.4 70 -13.7 7.4
12:10 1030 30.42 859 25.37 -8.8 16.2 72 -13.1 8.5
12:15 1030 30.42 859 25.37 -8.6 16.4 72 -12.7 9.1
12:20 1030 30.42 859 25.37 -8.9 16.1 72 -13 8.5
12:25 1030 30.42 859 25.37 -8.9 16.1 69 -13.5 7.7
12:30 1030 30.42 859 25.37 -8.7 16.4 72 -12.8 8.9
12:35 1030 30.42 859 25.37 -8.6 16.5 67 -13.6 7.5
12:40 1030 30.42 859 25.37 -8.4 16.8 70 -12.9 8.7
12:45 1030 30.42 859 25.37 -7.6 18.3 69 -12.4 9.6
12:50 1030 30.42 859 25.37 -7.1 19.3 65 -12.6 9.4
12:55 1030 30.42 859 25.37 -7 19.3 67 -12.2 10
13:00 1030 30.42 859 25.37 -7.1 19.2 66 -12.5 9.5
13:05 1030 30.42 859 25.37 -7.2 19 66 -12.5 9.6
13:10 1030 30.42 859 25.37 -6.8 19.8 63 -12.7 9.1
13:15 1030 30.42 859 25.37 -6.7 19.9 63 -12.5 9.4
13:20 1030 30.42 859 25.37 -6.9 19.6 64 -12.5 9.5
13:25 1030 30.42 859 25.37 -7.4 18.8 65 -12.8 9
13:30 1030 30.42 859 25.37 -7 19.4 66 -12.4 9.8
13:35 1030 30.42 859 25.37 -7.1 19.3 65 -12.5 9.5
13:40 1030 30.42 859 25.37 -7 19.3 66 -12.3 9.8
13:45 1030 30.42 859 25.37 -7.1 19.2 67 -12.2 10.1
13:50 1030 30.42 859 25.37 -6.8 19.8 65 -12.4 9.7
13:55 1030 30.42 859 25.37 -6.9 19.5 68 -11.9 10.5
14:00 1030 30.42 859 25.37 -6.6 20.1 63 -12.5 9.5
14:05 1030 30.42 859 25.37 -6.9 19.5 65 -12.5 9.4
14:10 1030 30.42 859 25.37 -7 19.4 66 -12.2 10
14:15 1030 30.42 859 25.37 -7.1 19.1 66 -12.5 9.4
14:20 1030 30.42 859 25.37 -7.3 18.9 66 -12.5 9.4
14:25 1030 30.42 859 25.37 -7.1 19.3 67 -12.2 10
14:30 1030 30.42 859 25.37 -7.2 19 67 -12.4 9.7
14:35 1030 30.42 859 25.37 -7.3 18.8 67 -12.4 9.6
14:40 1030 30.42 859 25.37 -7.4 18.6 67 -12.6 9.4
14:45 1030 30.42 859 25.37 -7.7 18.1 68 -12.7 9.1
14:50 1030 30.42 859 25.37 -7.9 17.7 68 -12.8 9
14:55 1030 30.42 859 25.37 -7.8 18 68 -12.6 9.3
15:00 1030 30.42 859 25.37 -7.6 18.4 68 -12.5 9.5
15:05 1030 30.42 859 25.37 -7.3 18.9 67 -12.3 9.8
15:10 1030 30.42 859 25.37 -7.2 19 67 -12.4 9.7
15:15 1030 30.42 859 25.37 -6.9 19.6 65 -12.5 9.5
15:20 1030 30.42 859 25.37 -7 19.5 66 -12.3 9.9
15:25 1030 30.42 859 25.37 -6.4 20.5 66 -11.7 10.9
15:30 1030 30.42 859 25.37 -6.3 20.7 63 -12.2 10
15:35 1030 30.42 859 25.37 -6.3 20.6 63 -12.2 10
15:40 1030 30.42 859 25.37 -6.6 20.1 66 -12 10.4
15:45 1030 30.42 859 25.37 -6.2 20.8 65 -11.7 10.9
15:50 1030 30.42 859 25.37 -5.9 21.4 65 -11.5 11.4
15:55 1030 30.42 859 25.37 -5.9 21.4 63 -12 10.5
16:00 1030 30.42 859 25.37 -5.8 21.6 65 -11.4 11.5
16:05 1030 30.42 859 25.37 -5.8 21.5 66 -11.3 11.7
16:10 1030 30.42 859 25.37 -5.4 22.3 63 -11.4 11.4
16:15 1030 30.42 859 25.37 -5.6 21.9 61 -11.9 10.5
16:20 1030 30.42 859 25.37 -5.9 21.5 61 -12.3 9.9
16:25 1030 30.42 859 25.37 -5.6 21.8 60 -12.2 10.1
16:30 1030 30.42 859 25.37 -5.4 22.2 60 -12 10.4
16:35 1030 30.42 859 25.37 -5.7 21.8 62 -11.8 10.8
16:40 1030 30.42 859 25.37 -6 21.3 64 -11.8 10.8
16:45 1030 30.42 859 25.37 -6.1 21 64 -11.9 10.6
16:50 1030 30.42 859 25.37 -6.2 20.8 68 -11.1 12
16:55 1030 30.42 859 25.37 -6.9 19.6 70 -11.4 11.4
17:00 1030 30.42 859 25.37 -7.2 19.1 71 -11.6 11.1
17:05 1030 30.42 859 25.37 -7.5 18.4 74 -11.5 11.4
17:10 1030 30.42 859 25.37 -7.7 18.1 73 -11.8 10.7
17:15 1030 30.42 859 25.37 -8.2 17.2 74 -12.1 10.3
17:20 1030 30.42 859 25.37 -8.1 17.5 72 -12.3 9.9
17:25 1030 30.42 859 25.37 -8.2 17.2 74 -12.2 10.1
17:30 1030 30.42 859 25.37 -8.4 16.9 74 -12.2 10.1
17:35 1030 30.42 859 25.37 -8.6 16.5 75 -12.2 10
17:40 1030 30.42 859 25.37 -8.9 16 77 -12.2 10
17:45 1030 30.42 859 25.37 -9.4 15.1 80 -12.3 9.9
17:50 1030 30.42 859 25.37 -9.7 14.5 82 -12.3 9.8
17:55 1030 30.42 859 25.37 -10 14.1 81 -12.6 9.2
18:00 1030 30.42 859 25.37 -10.2 13.6 80 -13 8.6
18:05 1030 30.42 859 25.37 -10.5 13.2 79 -13.4 7.9
18:10 1030 30.42 859 25.37 -10.7 12.7 81 -13.4 7.8
18:15 1030 30.42 859 25.37 -10.7 12.7 82 -13.3 8.1
18:20 1030 30.42 859 25.37 -10.7 12.7 81 -13.4 8
18:25 1030 30.42 859 25.37 -10.8 12.5 80 -13.6 7.5
18:30 1030 30.42 859 25.37 -10.8 12.5 80 -13.6 7.5
18:35 1030 30.42 859 25.37 -11.1 12 80 -13.9 6.9
18:40 1030 30.42 859 25.37 -11.5 11.4 81 -14.2 6.5
18:45 1030 30.42 859 25.37 -11.7 11 81 -14.2 6.4
18:50 1030 30.42 859 25.37 -11.7 10.9 81 -14.4 6.1
18:55 1030 30.42 859 25.37 -11.6 11 80 -14.4 6
19:00 1030 30.42 859 25.37 -11.8 10.9 80 -14.5 5.9
19:05 1030 30.42 859 25.37 -11.8 10.8 80 -14.6 5.8
19:10 1030 30.42 859 25.37 -11.8 10.8 80 -14.6 5.7
19:15 1030 30.42 859 25.37 -11.9 10.6 81 -14.6 5.7
19:20 1030 30.42 859 25.37 -11.9 10.6 80 -14.7 5.6
19:25 1030 30.42 859 25.37 -12.1 10.3 80 -14.8 5.4
19:30 1030 30.42 859 25.37 -12.3 10 81 -14.8 5.3
19:35 1030 30.42 859 25.37 -12.3 9.9 81 -14.9 5.2
19:40 1030 30.42 859 25.37 -12.3 9.9 80 -15 5
19:45 1030 30.42 859 25.37 -12.3 9.8 81 -15 5.1
19:50 1030 30.42 860 25.4 -12.3 9.8 81 -15 5
19:55 1030 30.42 859 25.37 -12.1 10.2 80 -15 5.1
20:00 1030 30.42 859 25.37 -12.2 10.1 80 -15 5.1
20:05 1030 30.42 859 25.37 -12.3 9.9 80 -15.1 4.8
20:10 1030 30.42 859 25.37 -12.4 9.7 80 -15.1 4.7
20:15 1030 30.42 859 25.37 -12.5 9.5 80 -15.2 4.6
20:20 1030 30.42 859 25.37 -12.5 9.5 80 -15.3 4.5
20:25 1030 30.42 859 25.37 -12.5 9.4 80 -15.3 4.4
20:30 1030 30.42 859 25.37 -12.7 9.2 80 -15.5 4.1
20:35 1030 30.42 860 25.4 -12.7 9.1 79 -15.6 4
20:40 1030 30.42 860 25.4 -12.8 9 80 -15.5 4.1
20:45 1030 30.42 859 25.37 -12.9 8.7 80 -15.7 3.7
20:50 1030 30.42 860 25.4 -13.1 8.5 80 -15.8 3.5
20:55 1030 30.42 860 25.4 -13 8.6 79 -15.9 3.4
21:00 1030 30.42 860 25.4 -12.8 9 78 -15.8 3.5
21:05 1031 30.45 860 25.4 -12.7 9.1 78 -15.8 3.6
21:10 1031 30.45 860 25.4 -12.9 8.7 79 -15.9 3.4
21:15 1031 30.45 860 25.4 -13.1 8.3 80 -16 3.3
21:20 1031 30.45 860 25.4 -13 8.6 79 -16 3.2
21:25 1031 30.45 860 25.4 -13.2 8.2 80 -16 3.2
21:30 1031 30.45 860 25.4 -13.2 8.3 79 -16.1 3.1
21:35 1031 30.45 860 25.4 -13.1 8.5 78 -16.1 3
21:40 1031 30.45 860 25.4 -12.8 9 78 -16 3.3
21:45 1031 30.45 860 25.4 -12.8 9 77 -16 3.1
21:50 1031 30.45 860 25.4 -13.1 8.5 78 -16.1 3
21:55 1031 30.45 860 25.4 -13.1 8.4 78 -16.2 2.9
22:00 1031 30.45 860 25.4 -12.9 8.8 78 -16 3.2
22:05 1031 30.45 860 25.4 -12.7 9.1 77 -15.9 3.3
22:10 1031 30.45 860 25.4 -12.5 9.4 78 -15.7 3.8
22:15 1031 30.45 860 25.4 -12.5 9.4 77 -15.8 3.6
22:20 1031 30.45 860 25.4 -12.5 9.6 77 -15.8 3.6
22:25 1031 30.45 860 25.4 -12.6 9.3 78 -15.7 3.8
22:30 1031 30.45 860 25.4 -13 8.6 79 -16 3.3
22:35 1031 30.45 860 25.4 -13.1 8.4 79 -16 3.2
22:40 1031 30.45 860 25.4 -13.2 8.3 79 -16 3.1
22:45 1031 30.45 860 25.4 -13.1 8.5 79 -16 3.3
22:50 1031 30.45 860 25.4 -13 8.6 79 -16 3.3
22:55 1031 30.45 860 25.4 -13.1 8.4 78 -16.2 2.9
23:00 1031 30.45 860 25.4 -13.3 8 78 -16.3 2.6
23:05 1031 30.45 860 25.4 -13.5 7.8 80 -16.2 2.8
23:10 1031 30.45 860 25.4 -13.3 8.1 78 -16.3 2.6
23:15 1031 30.45 860 25.4 -13.3 8 79 -16.3 2.7
23:20 1031 30.45 860 25.4 -13.4 8 80 -16.1 2.9
23:25 1031 30.45 860 25.4 -13.4 8 79 -16.3 2.7
23:30 1031 30.45 860 25.4 -13.5 7.7 80 -16.2 2.8
23:35 1031 30.45 860 25.4 -13.4 7.8 81 -16.1 3.1
23:40 1031 30.45 860 25.4 -13.1 8.5 80 -15.8 3.5
23:45 1031 30.45 860 25.4 -13.1 8.4 80 -15.9 3.4
23:50 1031 30.45 860 25.4 -13.4 7.8 82 -15.8 3.5
23:55 1031 30.45 860 25.4 -12.9 8.8 78 -16 3.2
24:00 1031 30.45 860 25.4 -12.9 8.7 79 -15.9 3.4